sensor_id;sensor_type;location;lat;lon;timestamp;P1;durP1;ratioP1;P2;durP2;ratioP2
71104;SDS011;58760;48.716;8.962;2023-07-31T00:01:27;7.20;;;1.50;;
71104;SDS011;58760;48.716;8.962;2023-07-31T00:03:52;4.05;;;1.48;;
71104;SDS011;58760;48.716;8.962;2023-07-31T00:06:17;4.15;;;1.30;;
71104;SDS011;58760;48.716;8.962;2023-07-31T00:08:43;4.05;;;1.40;;
71104;SDS011;58760;48.716;8.962;2023-07-31T00:11:08;5.97;;;1.45;;
71104;SDS011;58760;48.716;8.962;2023-07-31T00:13:33;6.82;;;1.40;;
71104;SDS011;58760;48.716;8.962;2023-07-31T00:15:59;5.47;;;1.70;;
71104;SDS011;58760;48.716;8.962;2023-07-31T00:18:24;6.97;;;1.50;;
71104;SDS011;58760;48.716;8.962;2023-07-31T00:20:50;5.65;;;1.45;;
71104;SDS011;58760;48.716;8.962;2023-07-31T00:23:15;5.18;;;1.40;;
71104;SDS011;58760;48.716;8.962;2023-07-31T00:25:41;5.32;;;1.48;;
71104;SDS011;58760;48.716;8.962;2023-07-31T00:28:06;4.88;;;1.60;;
71104;SDS011;58760;48.716;8.962;2023-07-31T00:30:42;3.00;;;1.17;;
71104;SDS011;58760;48.716;8.962;2023-07-31T00:33:08;4.60;;;1.55;;
71104;SDS011;58760;48.716;8.962;2023-07-31T00:35:33;3.42;;;1.60;;
71104;SDS011;58760;48.716;8.962;2023-07-31T00:37:58;2.72;;;1.35;;
71104;SDS011;58760;48.716;8.962;2023-07-31T00:40:24;4.63;;;1.38;;
71104;SDS011;58760;48.716;8.962;2023-07-31T00:42:49;5.78;;;1.40;;
71104;SDS011;58760;48.716;8.962;2023-07-31T00:45:14;3.13;;;1.20;;
71104;SDS011;58760;48.716;8.962;2023-07-31T00:47:40;4.45;;;1.50;;
71104;SDS011;58760;48.716;8.962;2023-07-31T00:50:06;5.53;;;1.60;;
71104;SDS011;58760;48.716;8.962;2023-07-31T00:52:32;4.53;;;1.40;;
71104;SDS011;58760;48.716;8.962;2023-07-31T00:54:57;4.55;;;1.60;;
71104;SDS011;58760;48.716;8.962;2023-07-31T00:57:23;6.35;;;1.73;;
71104;SDS011;58760;48.716;8.962;2023-07-31T00:59:48;3.47;;;1.55;;
71104;SDS011;58760;48.716;8.962;2023-07-31T01:02:14;7.70;;;1.67;;
71104;SDS011;58760;48.716;8.962;2023-07-31T01:04:39;6.68;;;1.67;;
71104;SDS011;58760;48.716;8.962;2023-07-31T01:12:35;4.78;;;1.52;;
71104;SDS011;58760;48.716;8.962;2023-07-31T01:15:06;6.95;;;1.80;;
71104;SDS011;58760;48.716;8.962;2023-07-31T01:17:37;4.10;;;1.50;;
71104;SDS011;58760;48.716;8.962;2023-07-31T01:20:05;5.07;;;1.67;;
71104;SDS011;58760;48.716;8.962;2023-07-31T01:22:39;6.38;;;1.60;;
71104;SDS011;58760;48.716;8.962;2023-07-31T01:28:13;5.18;;;1.52;;
71104;SDS011;58760;48.716;8.962;2023-07-31T01:30:43;4.97;;;1.70;;
71104;SDS011;58760;48.716;8.962;2023-07-31T01:33:12;3.97;;;1.30;;
71104;SDS011;58760;48.716;8.962;2023-07-31T01:35:41;5.15;;;1.48;;
71104;SDS011;58760;48.716;8.962;2023-07-31T01:38:09;5.05;;;1.52;;
71104;SDS011;58760;48.716;8.962;2023-07-31T01:40:37;4.60;;;1.60;;
71104;SDS011;58760;48.716;8.962;2023-07-31T01:43:06;3.95;;;1.38;;
71104;SDS011;58760;48.716;8.962;2023-07-31T01:45:31;4.88;;;1.63;;
71104;SDS011;58760;48.716;8.962;2023-07-31T01:47:57;7.50;;;1.50;;
71104;SDS011;58760;48.716;8.962;2023-07-31T01:50:22;6.65;;;1.70;;
71104;SDS011;58760;48.716;8.962;2023-07-31T01:52:47;5.25;;;1.50;;
71104;SDS011;58760;48.716;8.962;2023-07-31T01:55:13;7.15;;;1.63;;
71104;SDS011;58760;48.716;8.962;2023-07-31T01:57:38;5.35;;;1.40;;
71104;SDS011;58760;48.716;8.962;2023-07-31T02:00:04;4.22;;;1.48;;
71104;SDS011;58760;48.716;8.962;2023-07-31T02:02:30;4.63;;;1.42;;
71104;SDS011;58760;48.716;8.962;2023-07-31T02:04:55;6.05;;;1.60;;
71104;SDS011;58760;48.716;8.962;2023-07-31T02:07:21;3.75;;;1.20;;
71104;SDS011;58760;48.716;8.962;2023-07-31T02:09:46;6.72;;;1.50;;
71104;SDS011;58760;48.716;8.962;2023-07-31T02:14:39;4.40;;;1.35;;
71104;SDS011;58760;48.716;8.962;2023-07-31T02:17:05;4.20;;;1.30;;
71104;SDS011;58760;48.716;8.962;2023-07-31T02:19:31;6.47;;;1.55;;
71104;SDS011;58760;48.716;8.962;2023-07-31T02:21:56;5.03;;;1.40;;
71104;SDS011;58760;48.716;8.962;2023-07-31T02:24:21;4.97;;;1.50;;
71104;SDS011;58760;48.716;8.962;2023-07-31T02:26:46;5.78;;;1.55;;
71104;SDS011;58760;48.716;8.962;2023-07-31T02:29:12;5.22;;;1.40;;
71104;SDS011;58760;48.716;8.962;2023-07-31T02:31:37;4.85;;;1.42;;
71104;SDS011;58760;48.716;8.962;2023-07-31T02:34:02;5.93;;;1.52;;
71104;SDS011;58760;48.716;8.962;2023-07-31T02:36:28;5.60;;;1.65;;
71104;SDS011;58760;48.716;8.962;2023-07-31T02:38:53;4.15;;;1.70;;
71104;SDS011;58760;48.716;8.962;2023-07-31T02:41:18;5.43;;;1.70;;
71104;SDS011;58760;48.716;8.962;2023-07-31T02:43:44;4.13;;;1.30;;
71104;SDS011;58760;48.716;8.962;2023-07-31T02:46:09;4.53;;;1.45;;
71104;SDS011;58760;48.716;8.962;2023-07-31T02:48:34;3.85;;;1.35;;
71104;SDS011;58760;48.716;8.962;2023-07-31T02:51:00;5.60;;;1.48;;
71104;SDS011;58760;48.716;8.962;2023-07-31T02:53:25;4.88;;;1.60;;
71104;SDS011;58760;48.716;8.962;2023-07-31T02:55:51;5.05;;;1.52;;
71104;SDS011;58760;48.716;8.962;2023-07-31T02:58:16;12.02;;;1.70;;
71104;SDS011;58760;48.716;8.962;2023-07-31T03:00:42;4.03;;;1.50;;
71104;SDS011;58760;48.716;8.962;2023-07-31T03:05:33;4.90;;;1.47;;
71104;SDS011;58760;48.716;8.962;2023-07-31T03:07:58;4.43;;;1.50;;
71104;SDS011;58760;48.716;8.962;2023-07-31T03:10:24;5.80;;;1.67;;
71104;SDS011;58760;48.716;8.962;2023-07-31T03:12:49;5.80;;;1.67;;
71104;SDS011;58760;48.716;8.962;2023-07-31T03:15:14;7.40;;;1.70;;
71104;SDS011;58760;48.716;8.962;2023-07-31T03:17:40;10.90;;;1.60;;
71104;SDS011;58760;48.716;8.962;2023-07-31T03:20:06;5.03;;;1.50;;
71104;SDS011;58760;48.716;8.962;2023-07-31T03:22:31;4.22;;;1.45;;
71104;SDS011;58760;48.716;8.962;2023-07-31T03:24:57;6.60;;;1.52;;
71104;SDS011;58760;48.716;8.962;2023-07-31T03:27:22;6.07;;;1.40;;
71104;SDS011;58760;48.716;8.962;2023-07-31T03:32:33;4.85;;;1.80;;
71104;SDS011;58760;48.716;8.962;2023-07-31T03:35:03;4.97;;;1.40;;
71104;SDS011;58760;48.716;8.962;2023-07-31T03:37:30;6.18;;;1.73;;
71104;SDS011;58760;48.716;8.962;2023-07-31T03:42:41;5.43;;;1.67;;
71104;SDS011;58760;48.716;8.962;2023-07-31T03:45:14;5.80;;;1.95;;
71104;SDS011;58760;48.716;8.962;2023-07-31T03:47:40;5.97;;;1.73;;
71104;SDS011;58760;48.716;8.962;2023-07-31T03:50:05;4.50;;;1.63;;
71104;SDS011;58760;48.716;8.962;2023-07-31T03:52:31;5.68;;;1.75;;
71104;SDS011;58760;48.716;8.962;2023-07-31T03:54:56;5.07;;;1.55;;
71104;SDS011;58760;48.716;8.962;2023-07-31T03:57:22;5.15;;;1.80;;
71104;SDS011;58760;48.716;8.962;2023-07-31T03:59:47;5.13;;;1.40;;
71104;SDS011;58760;48.716;8.962;2023-07-31T04:02:12;5.03;;;1.85;;
71104;SDS011;58760;48.716;8.962;2023-07-31T04:07:04;4.07;;;1.30;;
71104;SDS011;58760;48.716;8.962;2023-07-31T04:09:29;3.97;;;1.50;;
71104;SDS011;58760;48.716;8.962;2023-07-31T04:11:55;5.38;;;1.60;;
71104;SDS011;58760;48.716;8.962;2023-07-31T04:14:20;5.60;;;1.50;;
71104;SDS011;58760;48.716;8.962;2023-07-31T04:16:46;4.05;;;1.42;;
71104;SDS011;58760;48.716;8.962;2023-07-31T04:19:11;5.40;;;1.70;;
71104;SDS011;58760;48.716;8.962;2023-07-31T04:21:41;5.57;;;1.45;;
71104;SDS011;58760;48.716;8.962;2023-07-31T04:24:06;5.63;;;1.52;;
71104;SDS011;58760;48.716;8.962;2023-07-31T04:26:32;6.43;;;1.98;;
71104;SDS011;58760;48.716;8.962;2023-07-31T04:28:57;4.65;;;1.80;;
71104;SDS011;58760;48.716;8.962;2023-07-31T04:31:22;5.13;;;1.42;;
71104;SDS011;58760;48.716;8.962;2023-07-31T04:33:48;4.43;;;1.80;;
71104;SDS011;58760;48.716;8.962;2023-07-31T04:36:13;3.53;;;1.25;;
71104;SDS011;58760;48.716;8.962;2023-07-31T04:38:39;6.57;;;1.88;;
71104;SDS011;58760;48.716;8.962;2023-07-31T04:41:06;4.80;;;1.70;;
71104;SDS011;58760;48.716;8.962;2023-07-31T04:43:31;4.25;;;1.27;;
71104;SDS011;58760;48.716;8.962;2023-07-31T04:45:56;4.93;;;1.52;;
71104;SDS011;58760;48.716;8.962;2023-07-31T04:48:23;3.00;;;1.27;;
71104;SDS011;58760;48.716;8.962;2023-07-31T04:50:48;8.57;;;2.15;;
71104;SDS011;58760;48.716;8.962;2023-07-31T04:53:14;7.15;;;1.92;;
71104;SDS011;58760;48.716;8.962;2023-07-31T04:55:39;6.25;;;1.60;;
71104;SDS011;58760;48.716;8.962;2023-07-31T04:58:04;7.10;;;1.70;;
71104;SDS011;58760;48.716;8.962;2023-07-31T05:00:30;4.30;;;1.60;;
71104;SDS011;58760;48.716;8.962;2023-07-31T05:02:55;5.20;;;1.60;;
71104;SDS011;58760;48.716;8.962;2023-07-31T05:05:21;4.65;;;1.40;;
71104;SDS011;58760;48.716;8.962;2023-07-31T05:07:46;6.22;;;1.70;;
71104;SDS011;58760;48.716;8.962;2023-07-31T05:10:12;4.68;;;1.40;;
71104;SDS011;58760;48.716;8.962;2023-07-31T05:12:37;5.18;;;1.50;;
71104;SDS011;58760;48.716;8.962;2023-07-31T05:15:02;4.65;;;1.80;;
71104;SDS011;58760;48.716;8.962;2023-07-31T05:17:28;8.13;;;1.80;;
71104;SDS011;58760;48.716;8.962;2023-07-31T05:19:54;5.70;;;1.52;;
71104;SDS011;58760;48.716;8.962;2023-07-31T05:22:19;4.93;;;1.40;;
71104;SDS011;58760;48.716;8.962;2023-07-31T05:24:44;4.38;;;1.60;;
71104;SDS011;58760;48.716;8.962;2023-07-31T05:27:10;5.78;;;1.70;;
71104;SDS011;58760;48.716;8.962;2023-07-31T05:29:35;6.53;;;1.80;;
71104;SDS011;58760;48.716;8.962;2023-07-31T05:32:01;5.05;;;1.70;;
71104;SDS011;58760;48.716;8.962;2023-07-31T05:34:26;4.97;;;1.55;;
71104;SDS011;58760;48.716;8.962;2023-07-31T05:36:52;6.95;;;1.52;;
71104;SDS011;58760;48.716;8.962;2023-07-31T05:39:18;9.35;;;1.73;;
71104;SDS011;58760;48.716;8.962;2023-07-31T05:41:55;5.10;;;1.70;;
71104;SDS011;58760;48.716;8.962;2023-07-31T05:44:21;5.82;;;1.90;;
71104;SDS011;58760;48.716;8.962;2023-07-31T05:46:46;6.70;;;1.77;;
71104;SDS011;58760;48.716;8.962;2023-07-31T05:49:11;5.15;;;1.40;;
71104;SDS011;58760;48.716;8.962;2023-07-31T05:51:36;6.82;;;1.90;;
71104;SDS011;58760;48.716;8.962;2023-07-31T05:54:02;7.85;;;1.60;;
71104;SDS011;58760;48.716;8.962;2023-07-31T05:56:27;6.45;;;1.70;;
71104;SDS011;58760;48.716;8.962;2023-07-31T05:58:53;6.68;;;1.50;;
71104;SDS011;58760;48.716;8.962;2023-07-31T06:01:18;4.45;;;1.65;;
71104;SDS011;58760;48.716;8.962;2023-07-31T06:03:43;9.55;;;1.77;;
71104;SDS011;58760;48.716;8.962;2023-07-31T06:06:09;5.15;;;1.40;;
71104;SDS011;58760;48.716;8.962;2023-07-31T06:08:34;3.95;;;1.30;;
71104;SDS011;58760;48.716;8.962;2023-07-31T06:11:00;4.07;;;1.27;;
71104;SDS011;58760;48.716;8.962;2023-07-31T06:13:25;4.22;;;1.38;;
71104;SDS011;58760;48.716;8.962;2023-07-31T06:15:51;4.95;;;1.40;;
71104;SDS011;58760;48.716;8.962;2023-07-31T06:18:16;10.88;;;1.83;;
71104;SDS011;58760;48.716;8.962;2023-07-31T06:20:41;4.25;;;1.50;;
71104;SDS011;58760;48.716;8.962;2023-07-31T06:23:07;8.25;;;1.42;;
71104;SDS011;58760;48.716;8.962;2023-07-31T06:25:32;6.22;;;1.73;;
71104;SDS011;58760;48.716;8.962;2023-07-31T06:27:58;9.20;;;1.83;;
71104;SDS011;58760;48.716;8.962;2023-07-31T06:30:23;8.52;;;1.50;;
71104;SDS011;58760;48.716;8.962;2023-07-31T06:32:48;4.90;;;1.52;;
71104;SDS011;58760;48.716;8.962;2023-07-31T06:35:14;5.35;;;1.48;;
71104;SDS011;58760;48.716;8.962;2023-07-31T06:37:39;5.75;;;1.58;;
71104;SDS011;58760;48.716;8.962;2023-07-31T06:40:06;6.18;;;2.35;;
71104;SDS011;58760;48.716;8.962;2023-07-31T06:42:33;8.30;;;1.70;;
71104;SDS011;58760;48.716;8.962;2023-07-31T06:45:00;5.45;;;1.70;;
71104;SDS011;58760;48.716;8.962;2023-07-31T06:47:25;4.60;;;1.58;;
71104;SDS011;58760;48.716;8.962;2023-07-31T06:49:51;8.50;;;1.90;;
71104;SDS011;58760;48.716;8.962;2023-07-31T06:52:16;11.23;;;1.70;;
71104;SDS011;58760;48.716;8.962;2023-07-31T06:54:41;5.03;;;1.50;;
71104;SDS011;58760;48.716;8.962;2023-07-31T06:57:07;7.38;;;1.30;;
71104;SDS011;58760;48.716;8.962;2023-07-31T06:59:33;7.57;;;1.88;;
71104;SDS011;58760;48.716;8.962;2023-07-31T07:01:58;9.30;;;2.10;;
71104;SDS011;58760;48.716;8.962;2023-07-31T07:04:24;9.98;;;1.73;;
71104;SDS011;58760;48.716;8.962;2023-07-31T07:06:49;5.82;;;1.60;;
71104;SDS011;58760;48.716;8.962;2023-07-31T07:09:14;10.85;;;2.03;;
71104;SDS011;58760;48.716;8.962;2023-07-31T07:11:40;5.60;;;1.50;;
71104;SDS011;58760;48.716;8.962;2023-07-31T07:14:05;7.88;;;1.88;;
71104;SDS011;58760;48.716;8.962;2023-07-31T07:16:30;7.80;;;1.63;;
71104;SDS011;58760;48.716;8.962;2023-07-31T07:18:56;6.00;;;1.60;;
71104;SDS011;58760;48.716;8.962;2023-07-31T07:21:21;7.60;;;2.00;;
71104;SDS011;58760;48.716;8.962;2023-07-31T07:23:46;5.75;;;1.73;;
71104;SDS011;58760;48.716;8.962;2023-07-31T07:26:12;7.20;;;1.77;;
71104;SDS011;58760;48.716;8.962;2023-07-31T07:28:37;5.97;;;1.40;;
71104;SDS011;58760;48.716;8.962;2023-07-31T07:31:03;5.53;;;1.92;;
71104;SDS011;58760;48.716;8.962;2023-07-31T07:33:28;5.50;;;1.83;;
71104;SDS011;58760;48.716;8.962;2023-07-31T07:35:54;5.85;;;1.70;;
71104;SDS011;58760;48.716;8.962;2023-07-31T07:38:19;7.82;;;1.73;;
71104;SDS011;58760;48.716;8.962;2023-07-31T07:40:45;6.55;;;1.65;;
71104;SDS011;58760;48.716;8.962;2023-07-31T07:43:11;7.60;;;1.98;;
71104;SDS011;58760;48.716;8.962;2023-07-31T07:45:37;6.22;;;1.67;;
71104;SDS011;58760;48.716;8.962;2023-07-31T07:48:02;5.63;;;1.67;;
71104;SDS011;58760;48.716;8.962;2023-07-31T07:50:28;5.75;;;1.80;;
71104;SDS011;58760;48.716;8.962;2023-07-31T07:52:54;10.60;;;1.70;;
71104;SDS011;58760;48.716;8.962;2023-07-31T07:55:19;5.90;;;1.67;;
71104;SDS011;58760;48.716;8.962;2023-07-31T07:57:44;6.70;;;1.77;;
71104;SDS011;58760;48.716;8.962;2023-07-31T08:00:10;6.70;;;2.08;;
71104;SDS011;58760;48.716;8.962;2023-07-31T08:02:37;8.23;;;1.92;;
71104;SDS011;58760;48.716;8.962;2023-07-31T08:05:03;8.57;;;1.70;;
71104;SDS011;58760;48.716;8.962;2023-07-31T08:07:29;7.90;;;1.70;;
71104;SDS011;58760;48.716;8.962;2023-07-31T08:09:54;7.78;;;1.73;;
71104;SDS011;58760;48.716;8.962;2023-07-31T08:12:19;5.50;;;1.67;;
71104;SDS011;58760;48.716;8.962;2023-07-31T08:14:45;6.07;;;1.77;;
71104;SDS011;58760;48.716;8.962;2023-07-31T08:17:10;6.15;;;2.00;;
71104;SDS011;58760;48.716;8.962;2023-07-31T08:19:36;10.70;;;2.35;;
71104;SDS011;58760;48.716;8.962;2023-07-31T08:22:01;4.60;;;1.58;;
71104;SDS011;58760;48.716;8.962;2023-07-31T08:24:26;8.10;;;1.80;;
71104;SDS011;58760;48.716;8.962;2023-07-31T08:26:52;6.32;;;1.77;;
71104;SDS011;58760;48.716;8.962;2023-07-31T08:29:17;10.20;;;2.08;;
71104;SDS011;58760;48.716;8.962;2023-07-31T08:31:42;4.40;;;1.48;;
71104;SDS011;58760;48.716;8.962;2023-07-31T08:34:08;8.13;;;1.70;;
71104;SDS011;58760;48.716;8.962;2023-07-31T08:36:33;5.57;;;1.73;;
71104;SDS011;58760;48.716;8.962;2023-07-31T08:38:58;8.18;;;2.28;;
71104;SDS011;58760;48.716;8.962;2023-07-31T08:41:24;5.05;;;1.90;;
71104;SDS011;58760;48.716;8.962;2023-07-31T08:43:50;8.70;;;2.00;;
71104;SDS011;58760;48.716;8.962;2023-07-31T08:46:18;8.73;;;1.65;;
71104;SDS011;58760;48.716;8.962;2023-07-31T08:48:45;8.50;;;2.00;;
71104;SDS011;58760;48.716;8.962;2023-07-31T08:51:13;8.73;;;2.00;;
71104;SDS011;58760;48.716;8.962;2023-07-31T08:53:39;7.85;;;2.08;;
71104;SDS011;58760;48.716;8.962;2023-07-31T08:56:05;8.52;;;2.28;;
71104;SDS011;58760;48.716;8.962;2023-07-31T08:58:33;6.80;;;2.10;;
71104;SDS011;58760;48.716;8.962;2023-07-31T09:01:03;8.00;;;2.30;;
71104;SDS011;58760;48.716;8.962;2023-07-31T09:03:30;10.15;;;1.90;;
71104;SDS011;58760;48.716;8.962;2023-07-31T09:05:58;5.22;;;2.00;;
71104;SDS011;58760;48.716;8.962;2023-07-31T09:10:51;5.30;;;2.00;;
71104;SDS011;58760;48.716;8.962;2023-07-31T09:15:43;6.00;;;2.13;;
71104;SDS011;58760;48.716;8.962;2023-07-31T09:18:10;8.60;;;2.20;;
71104;SDS011;58760;48.716;8.962;2023-07-31T09:23:06;7.55;;;1.73;;
71104;SDS011;58760;48.716;8.962;2023-07-31T09:25:33;7.57;;;2.17;;
71104;SDS011;58760;48.716;8.962;2023-07-31T09:28:02;8.13;;;1.85;;
71104;SDS011;58760;48.716;8.962;2023-07-31T09:30:30;7.68;;;2.03;;
71104;SDS011;58760;48.716;8.962;2023-07-31T09:35:30;8.07;;;1.83;;
71104;SDS011;58760;48.716;8.962;2023-07-31T09:37:57;6.75;;;2.00;;
71104;SDS011;58760;48.716;8.962;2023-07-31T09:40:31;10.65;;;2.13;;
71104;SDS011;58760;48.716;8.962;2023-07-31T09:42:59;6.97;;;2.13;;
71104;SDS011;58760;48.716;8.962;2023-07-31T09:45:26;8.40;;;2.33;;
71104;SDS011;58760;48.716;8.962;2023-07-31T09:50:17;9.45;;;2.25;;
71104;SDS011;58760;48.716;8.962;2023-07-31T09:52:44;5.88;;;1.80;;
71104;SDS011;58760;48.716;8.962;2023-07-31T09:55:10;7.20;;;2.30;;
71104;SDS011;58760;48.716;8.962;2023-07-31T09:57:44;9.05;;;2.38;;
71104;SDS011;58760;48.716;8.962;2023-07-31T10:00:12;7.28;;;2.30;;
71104;SDS011;58760;48.716;8.962;2023-07-31T10:02:39;8.45;;;2.13;;
71104;SDS011;58760;48.716;8.962;2023-07-31T10:05:05;8.77;;;2.00;;
71104;SDS011;58760;48.716;8.962;2023-07-31T10:07:31;4.70;;;1.70;;
71104;SDS011;58760;48.716;8.962;2023-07-31T10:10:03;8.23;;;2.20;;
71104;SDS011;58760;48.716;8.962;2023-07-31T10:12:29;9.88;;;2.45;;
71104;SDS011;58760;48.716;8.962;2023-07-31T10:14:57;6.28;;;1.98;;
71104;SDS011;58760;48.716;8.962;2023-07-31T10:17:24;6.25;;;1.75;;
71104;SDS011;58760;48.716;8.962;2023-07-31T10:19:51;7.38;;;2.00;;
71104;SDS011;58760;48.716;8.962;2023-07-31T10:22:19;9.32;;;2.40;;
71104;SDS011;58760;48.716;8.962;2023-07-31T10:24:45;8.93;;;2.20;;
71104;SDS011;58760;48.716;8.962;2023-07-31T10:29:37;6.35;;;2.05;;
71104;SDS011;58760;48.716;8.962;2023-07-31T10:32:04;6.93;;;2.28;;
71104;SDS011;58760;48.716;8.962;2023-07-31T10:34:33;7.47;;;2.20;;
71104;SDS011;58760;48.716;8.962;2023-07-31T10:37:19;7.65;;;1.98;;
71104;SDS011;58760;48.716;8.962;2023-07-31T10:40:03;6.28;;;2.30;;
71104;SDS011;58760;48.716;8.962;2023-07-31T10:44:59;5.03;;;1.90;;
71104;SDS011;58760;48.716;8.962;2023-07-31T10:47:29;9.23;;;2.38;;
71104;SDS011;58760;48.716;8.962;2023-07-31T10:52:36;8.98;;;2.40;;
71104;SDS011;58760;48.716;8.962;2023-07-31T10:57:40;7.32;;;2.08;;
71104;SDS011;58760;48.716;8.962;2023-07-31T11:05:44;7.00;;;2.08;;
71104;SDS011;58760;48.716;8.962;2023-07-31T11:08:16;9.00;;;2.08;;
71104;SDS011;58760;48.716;8.962;2023-07-31T11:10:42;5.85;;;2.15;;
71104;SDS011;58760;48.716;8.962;2023-07-31T11:13:08;8.68;;;2.50;;
71104;SDS011;58760;48.716;8.962;2023-07-31T11:18:02;7.80;;;2.10;;
71104;SDS011;58760;48.716;8.962;2023-07-31T11:20:34;5.88;;;2.15;;
71104;SDS011;58760;48.716;8.962;2023-07-31T11:23:01;5.75;;;2.20;;
71104;SDS011;58760;48.716;8.962;2023-07-31T11:25:28;7.93;;;1.98;;
71104;SDS011;58760;48.716;8.962;2023-07-31T11:27:55;7.00;;;1.77;;
71104;SDS011;58760;48.716;8.962;2023-07-31T11:32:46;6.53;;;1.90;;
71104;SDS011;58760;48.716;8.962;2023-07-31T11:35:12;6.63;;;2.03;;
71104;SDS011;58760;48.716;8.962;2023-07-31T11:40:07;6.80;;;2.10;;
71104;SDS011;58760;48.716;8.962;2023-07-31T11:42:34;6.75;;;2.10;;
71104;SDS011;58760;48.716;8.962;2023-07-31T11:45:02;7.88;;;2.70;;
71104;SDS011;58760;48.716;8.962;2023-07-31T11:47:28;6.68;;;2.00;;
71104;SDS011;58760;48.716;8.962;2023-07-31T11:49:53;7.38;;;2.22;;
71104;SDS011;58760;48.716;8.962;2023-07-31T11:52:19;6.82;;;2.00;;
71104;SDS011;58760;48.716;8.962;2023-07-31T11:57:11;5.90;;;2.38;;
71104;SDS011;58760;48.716;8.962;2023-07-31T12:02:03;7.43;;;2.22;;
71104;SDS011;58760;48.716;8.962;2023-07-31T12:04:29;7.88;;;2.25;;
71104;SDS011;58760;48.716;8.962;2023-07-31T12:09:20;7.83;;;2.40;;
71104;SDS011;58760;48.716;8.962;2023-07-31T12:11:45;8.80;;;2.75;;
71104;SDS011;58760;48.716;8.962;2023-07-31T12:14:21;9.93;;;2.50;;
71104;SDS011;58760;48.716;8.962;2023-07-31T12:16:54;7.78;;;2.20;;
71104;SDS011;58760;48.716;8.962;2023-07-31T12:19:20;8.82;;;2.90;;
71104;SDS011;58760;48.716;8.962;2023-07-31T12:24:11;7.07;;;2.60;;
71104;SDS011;58760;48.716;8.962;2023-07-31T12:26:37;6.15;;;2.22;;
71104;SDS011;58760;48.716;8.962;2023-07-31T12:29:02;8.27;;;2.13;;
71104;SDS011;58760;48.716;8.962;2023-07-31T12:31:33;8.60;;;2.20;;
71104;SDS011;58760;48.716;8.962;2023-07-31T12:33:58;7.95;;;2.47;;
71104;SDS011;58760;48.716;8.962;2023-07-31T12:38:50;8.55;;;2.42;;
71104;SDS011;58760;48.716;8.962;2023-07-31T12:41:16;9.07;;;2.45;;
71104;SDS011;58760;48.716;8.962;2023-07-31T12:46:09;7.47;;;2.25;;
71104;SDS011;58760;48.716;8.962;2023-07-31T12:48:36;7.45;;;2.30;;
71104;SDS011;58760;48.716;8.962;2023-07-31T12:51:02;5.60;;;2.00;;
71104;SDS011;58760;48.716;8.962;2023-07-31T12:55:54;7.43;;;2.42;;
71104;SDS011;58760;48.716;8.962;2023-07-31T12:58:31;5.43;;;1.90;;
71104;SDS011;58760;48.716;8.962;2023-07-31T13:00:56;7.97;;;2.35;;
71104;SDS011;58760;48.716;8.962;2023-07-31T13:05:47;7.22;;;2.13;;
71104;SDS011;58760;48.716;8.962;2023-07-31T13:10:38;5.78;;;2.08;;
71104;SDS011;58760;48.716;8.962;2023-07-31T13:15:29;5.83;;;2.40;;
71104;SDS011;58760;48.716;8.962;2023-07-31T13:20:26;6.05;;;2.20;;
71104;SDS011;58760;48.716;8.962;2023-07-31T13:25:49;9.10;;;2.00;;
71104;SDS011;58760;48.716;8.962;2023-07-31T13:28:23;5.15;;;1.80;;
71104;SDS011;58760;48.716;8.962;2023-07-31T13:30:49;6.43;;;1.92;;
71104;SDS011;58760;48.716;8.962;2023-07-31T13:35:39;5.37;;;2.40;;
71104;SDS011;58760;48.716;8.962;2023-07-31T13:40:30;5.05;;;1.85;;
71104;SDS011;58760;48.716;8.962;2023-07-31T13:42:56;4.97;;;2.10;;
71104;SDS011;58760;48.716;8.962;2023-07-31T13:45:21;8.18;;;2.50;;
71104;SDS011;58760;48.716;8.962;2023-07-31T13:50:12;6.03;;;2.00;;
71104;SDS011;58760;48.716;8.962;2023-07-31T13:55:02;5.17;;;2.20;;
71104;SDS011;58760;48.716;8.962;2023-07-31T13:59:53;4.35;;;2.03;;
71104;SDS011;58760;48.716;8.962;2023-07-31T14:04:44;6.10;;;2.00;;
71104;SDS011;58760;48.716;8.962;2023-07-31T14:09:34;7.32;;;2.30;;
71104;SDS011;58760;48.716;8.962;2023-07-31T14:14:25;5.57;;;2.15;;
71104;SDS011;58760;48.716;8.962;2023-07-31T14:19:15;7.43;;;2.17;;
71104;SDS011;58760;48.716;8.962;2023-07-31T14:24:06;6.60;;;2.38;;
71104;SDS011;58760;48.716;8.962;2023-07-31T14:28:57;5.88;;;2.20;;
71104;SDS011;58760;48.716;8.962;2023-07-31T14:33:48;12.73;;;2.65;;
71104;SDS011;58760;48.716;8.962;2023-07-31T14:38:38;9.97;;;2.27;;
71104;SDS011;58760;48.716;8.962;2023-07-31T14:43:29;8.65;;;2.00;;
71104;SDS011;58760;48.716;8.962;2023-07-31T14:48:22;7.68;;;2.17;;
71104;SDS011;58760;48.716;8.962;2023-07-31T14:53:13;5.63;;;2.30;;
71104;SDS011;58760;48.716;8.962;2023-07-31T14:58:04;6.72;;;2.20;;
71104;SDS011;58760;48.716;8.962;2023-07-31T15:02:55;6.60;;;2.20;;
71104;SDS011;58760;48.716;8.962;2023-07-31T15:05:20;5.65;;;2.08;;
71104;SDS011;58760;48.716;8.962;2023-07-31T15:07:46;6.70;;;2.10;;
71104;SDS011;58760;48.716;8.962;2023-07-31T15:12:37;7.13;;;2.33;;
71104;SDS011;58760;48.716;8.962;2023-07-31T15:17:45;7.32;;;2.35;;
71104;SDS011;58760;48.716;8.962;2023-07-31T15:20:10;7.43;;;2.35;;
71104;SDS011;58760;48.716;8.962;2023-07-31T15:22:37;6.65;;;2.30;;
71104;SDS011;58760;48.716;8.962;2023-07-31T15:27:27;5.63;;;2.53;;
71104;SDS011;58760;48.716;8.962;2023-07-31T15:32:37;6.07;;;2.50;;
71104;SDS011;58760;48.716;8.962;2023-07-31T15:35:04;7.00;;;2.72;;
71104;SDS011;58760;48.716;8.962;2023-07-31T15:37:29;7.45;;;2.15;;
71104;SDS011;58760;48.716;8.962;2023-07-31T15:42:20;14.43;;;2.40;;
71104;SDS011;58760;48.716;8.962;2023-07-31T15:47:11;12.02;;;2.00;;
71104;SDS011;58760;48.716;8.962;2023-07-31T15:52:01;6.20;;;2.30;;
71104;SDS011;58760;48.716;8.962;2023-07-31T15:56:52;8.17;;;2.10;;
71104;SDS011;58760;48.716;8.962;2023-07-31T16:01:43;15.70;;;2.70;;
71104;SDS011;58760;48.716;8.962;2023-07-31T16:06:33;7.77;;;1.90;;
71104;SDS011;58760;48.716;8.962;2023-07-31T16:11:24;8.80;;;2.27;;
71104;SDS011;58760;48.716;8.962;2023-07-31T16:16:15;8.40;;;2.37;;
71104;SDS011;58760;48.716;8.962;2023-07-31T16:21:05;8.93;;;2.70;;
71104;SDS011;58760;48.716;8.962;2023-07-31T16:25:56;9.20;;;2.83;;
71104;SDS011;58760;48.716;8.962;2023-07-31T16:28:21;11.43;;;6.53;;
71104;SDS011;58760;48.716;8.962;2023-07-31T16:30:46;20.83;;;13.38;;
71104;SDS011;58760;48.716;8.962;2023-07-31T16:35:37;14.77;;;5.47;;
71104;SDS011;58760;48.716;8.962;2023-07-31T16:40:28;9.03;;;2.70;;
71104;SDS011;58760;48.716;8.962;2023-07-31T16:45:19;8.57;;;2.90;;
71104;SDS011;58760;48.716;8.962;2023-07-31T16:47:44;6.82;;;2.30;;
71104;SDS011;58760;48.716;8.962;2023-07-31T16:52:36;6.82;;;2.35;;
71104;SDS011;58760;48.716;8.962;2023-07-31T16:55:01;6.38;;;2.40;;
71104;SDS011;58760;48.716;8.962;2023-07-31T16:57:27;8.82;;;4.38;;
71104;SDS011;58760;48.716;8.962;2023-07-31T16:59:52;7.97;;;2.70;;
71104;SDS011;58760;48.716;8.962;2023-07-31T17:04:43;9.15;;;3.47;;
71104;SDS011;58760;48.716;8.962;2023-07-31T17:07:10;11.05;;;4.95;;
71104;SDS011;58760;48.716;8.962;2023-07-31T17:09:35;10.88;;;5.70;;
71104;SDS011;58760;48.716;8.962;2023-07-31T17:14:27;13.98;;;6.03;;
71104;SDS011;58760;48.716;8.962;2023-07-31T17:19:18;10.32;;;3.30;;
71104;SDS011;58760;48.716;8.962;2023-07-31T17:21:43;10.93;;;3.00;;
71104;SDS011;58760;48.716;8.962;2023-07-31T17:24:09;10.88;;;3.60;;
71104;SDS011;58760;48.716;8.962;2023-07-31T17:26:34;8.98;;;2.80;;
71104;SDS011;58760;48.716;8.962;2023-07-31T17:31:25;7.33;;;2.43;;
71104;SDS011;58760;48.716;8.962;2023-07-31T17:33:51;6.57;;;2.30;;
71104;SDS011;58760;48.716;8.962;2023-07-31T17:36:16;6.25;;;2.42;;
71104;SDS011;58760;48.716;8.962;2023-07-31T17:38:42;9.30;;;2.40;;
71104;SDS011;58760;48.716;8.962;2023-07-31T17:41:07;8.82;;;2.17;;
71104;SDS011;58760;48.716;8.962;2023-07-31T17:43:33;9.60;;;2.65;;
71104;SDS011;58760;48.716;8.962;2023-07-31T17:48:23;7.97;;;2.10;;